OIBK

Kish International Airport

Kish Island, Iran
METAR OIBK 210500Z 11010KT 3500 HZ BKN025 34/30 Q0999
Observed Flight Rules
Aug-21 @ 05:00 UTC (9 hours ago) Instrument Flight Rules
Wind Visibility Clouds Conditions
110° at 10 knots 3,492 meters
  • Broken at 2,500' AGL
  • Haze
Temperatures Readings
Current 34°C / 93°F
Dewpoint 30°C / 86°F
Humidity 80%
Altimeter 29.5" Hg
Pressure 999 hPa
Elevation 30
METAR OIBK 210500Z 11010KT 3500 HZ BKN025 34/30 Q0999
Observed Flight Rules
Aug-21 @ 05:00 UTC
(9 hours ago)
IFR
Wind Visibility
110° at 10 knots 3,492 meters
Clouds
  • Broken at 2,500' AGL
Conditions
  • Haze
Temperature Dewpoint
34°C / 93°F 30°C / 86°F
Humidity Altimeter Pressure
80% 29.5" Hg 999 hPa